Time;durP1;ratioP1;P1;durP2;ratioP2;P2;SDS_P1;SDS_P2;PMS_P1;PMS_P2;Temp;Humidity;BMP_temperature;BMP_pressure;BME280_temperature;BME280_humidity;BME280_pressure;Samples;Min_cycle;Max_cycle;Signal;HPM_P1;HPM_P2
2021/12/18 00:00:36;;;;;;;129.20;6.35;;;;;;;;;;6167473;23;20417;-80
2021/12/18 00:03:03;;;;;;;136.73;7.47;;;;;;;;;;6167179;23;20434;-80
2021/12/18 00:05:29;;;;;;;61.87;6.23;;;;;;;;;;6143947;23;20368;-80
2021/12/18 00:07:55;;;;;;;87.90;6.50;;;;;;;;;;6142821;23;20380;-80
2021/12/18 00:10:23;;;;;;;60.67;6.38;;;;;;;;;;6192943;23;20434;-80
2021/12/18 00:12:50;;;;;;;97.27;7.70;;;;;;;;;;6167164;23;20372;-81
2021/12/18 00:15:20;;;;;;;60.13;6.88;;;;;;;;;;6168321;23;20911;-80
2021/12/18 00:17:46;;;;;;;72.38;6.90;;;;;;;;;;6167366;23;20371;-80
2021/12/18 00:20:16;;;;;;;47.97;6.00;;;;;;;;;;6143578;23;20372;-80
2021/12/18 00:22:43;;;;;;;50.83;6.80;;;;;;;;;;6167459;23;20396;-79
2021/12/18 00:25:09;;;;;;;88.78;8.43;;;;;;;;;;6167410;23;20379;-80
2021/12/18 00:27:35;;;;;;;48.47;6.50;;;;;;;;;;6193062;23;20375;-80
2021/12/18 00:30:01;;;;;;;57.05;6.80;;;;;;;;;;6167920;23;20421;-79
2021/12/18 00:32:27;;;;;;;145.80;8.70;;;;;;;;;;6167499;23;20370;-80
2021/12/18 00:34:53;;;;;;;108.65;7.82;;;;;;;;;;6167696;23;20435;-80
2021/12/18 00:37:20;;;;;;;142.38;8.38;;;;;;;;;;6143066;23;20364;-80
2021/12/18 00:39:55;;;;;;;28.87;5.23;;;;;;;;;;6193505;23;20383;-79
2021/12/18 00:42:46;;;;;;;10.45;3.50;;;;;;;;;;6166714;23;20483;-79
2021/12/18 00:45:17;;;;;;;17.92;4.57;;;;;;;;;;6168653;23;20370;-79
2021/12/18 00:47:44;;;;;;;21.25;5.03;;;;;;;;;;6167517;23;20404;-79
2021/12/18 00:50:19;;;;;;;22.30;4.18;;;;;;;;;;6168000;23;20372;-80
2021/12/18 00:52:47;;;;;;;12.10;4.30;;;;;;;;;;6194645;23;20380;-80
2021/12/18 00:55:13;;;;;;;23.40;4.78;;;;;;;;;;6171375;23;20376;-80
2021/12/18 00:57:39;;;;;;;24.00;4.87;;;;;;;;;;6169391;23;20367;-80
2021/12/18 01:00:07;;;;;;;33.05;5.20;;;;;;;;;;6168147;23;20410;-80
2021/12/18 01:02:33;;;;;;;48.78;5.53;;;;;;;;;;6166883;23;20391;-80
2021/12/18 01:05:00;;;;;;;37.53;5.50;;;;;;;;;;6192799;23;20368;-80
2021/12/18 01:07:26;;;;;;;25.20;4.95;;;;;;;;;;6166594;23;20406;-80
2021/12/18 01:12:27;;;;;;;26.00;5.60;;;;;;;;;;6167483;23;20403;-79
2021/12/18 01:23:08;;;;;;;13.85;4.57;;;;;;;;;;6192181;23;20423;-80
2021/12/18 01:25:34;;;;;;;17.77;4.50;;;;;;;;;;6166089;23;21051;-80
2021/12/18 01:28:00;;;;;;;15.95;4.50;;;;;;;;;;6168228;23;20387;-80
2021/12/18 01:30:26;;;;;;;25.42;4.70;;;;;;;;;;6143128;23;20370;-80
2021/12/18 01:32:54;;;;;;;17.02;4.13;;;;;;;;;;6167130;23;20371;-80
2021/12/18 01:35:21;;;;;;;24.50;3.87;;;;;;;;;;6143545;23;20990;-80
2021/12/18 01:37:49;;;;;;;33.38;4.57;;;;;;;;;;6166289;23;20387;-80
2021/12/18 01:40:15;;;;;;;37.50;5.23;;;;;;;;;;6168361;23;20481;-80
2021/12/18 01:53:19;;;;;;;121.40;7.93;;;;;;;;;;6192654;23;20376;-80
2021/12/18 01:55:49;;;;;;;126.55;8.52;;;;;;;;;;6165615;23;20487;-78
2021/12/18 01:58:20;;;;;;;147.05;9.73;;;;;;;;;;6192542;23;20376;-79
2021/12/18 02:00:46;;;;;;;112.18;7.90;;;;;;;;;;6143660;23;20368;-80
2021/12/18 02:03:13;;;;;;;138.32;8.75;;;;;;;;;;6192123;23;20414;-80
2021/12/18 02:05:39;;;;;;;112.22;7.88;;;;;;;;;;6169019;23;20363;-80
2021/12/18 02:08:06;;;;;;;84.75;6.47;;;6.90;99.90;;;;;;6168203;23;20391;-80
2021/12/18 02:10:43;;;;;;;109.18;7.40;;;;;;;;;;6194749;23;20701;-80
2021/12/18 02:21:29;;;;;;;81.00;7.43;;;;;;;;;;6172552;23;20853;-80
2021/12/18 02:23:56;;;;;;;36.28;7.38;;;;;;;;;;6169588;23;20399;-80
2021/12/18 02:26:23;;;;;;;20.48;6.20;;;;;;;;;;6168131;23;20391;-79
2021/12/18 02:28:51;;;;;;;23.75;5.70;;;;;;;;;;6168586;23;20379;-79
2021/12/18 02:31:18;;;;;;;41.20;6.22;;;;;;;;;;6169489;23;20850;-79
2021/12/18 02:33:45;;;;;;;32.90;6.00;;;;;;;;;;6167714;23;20391;-80
2021/12/18 02:36:13;;;;;;;26.75;5.18;;;;;;;;;;6169077;23;20371;-80
2021/12/18 02:43:48;;;;;;;30.52;5.40;;;;;;;;;;6171711;23;20410;-80
2021/12/18 02:46:19;;;;;;;31.25;5.35;;;;;;;;;;6193026;23;20463;-81
2021/12/18 02:48:45;;;;;;;21.48;5.05;;;;;;;;;;6170591;23;20514;-80
2021/12/18 02:51:12;;;;;;;17.00;4.00;;;;;;;;;;6193705;23;20372;-80
2021/12/18 02:53:41;;;;;;;17.55;3.70;;;;;;;;;;6167840;23;20398;-80
2021/12/18 02:56:10;;;;;;;11.23;3.03;;;;;;;;;;6168278;23;20372;-79
2021/12/18 02:58:37;;;;;;;15.55;3.10;;;;;;;;;;6144608;23;20376;-80
2021/12/18 03:01:04;;;;;;;10.90;3.05;;;;;;;;;;6170032;23;20442;-80
2021/12/18 03:03:34;;;;;;;11.82;2.75;;;;;;;;;;6169057;23;20494;-80
2021/12/18 03:25:03;;;;;;;21.52;5.40;;;;;;;;;;6193160;23;20383;-81
2021/12/18 03:27:30;;;;;;;23.88;4.90;;;;;;;;;;6146922;23;20844;-80
2021/12/18 03:29:56;;;;;;;20.15;4.10;;;;;;;;;;6169513;23;20371;-80
2021/12/18 03:32:23;;;;;;;20.70;4.22;;;;;;;;;;6194797;23;20455;-80
2021/12/18 03:34:50;;;;;;;25.50;4.97;;;;;;;;;;6170101;23;20371;-80
2021/12/18 03:37:16;;;;;;;32.83;5.68;;;;;;;;;;6168738;23;20425;-80
2021/12/18 03:39:43;;;;;;;25.55;5.38;;;;;;;;;;6170667;23;20364;-80
2021/12/18 03:42:09;;;;;;;33.22;5.40;;;;;;;;;;6168973;23;20423;-81
2021/12/18 03:44:36;;;;;;;28.63;5.20;;;;;;;;;;6169602;23;20426;-80
2021/12/18 03:47:03;;;;;;;16.17;4.57;;;;;;;;;;6168373;23;20391;-81
2021/12/18 03:49:29;;;;;;;14.48;4.40;;;;;;;;;;6145277;23;20375;-80
2021/12/18 03:51:56;;;;;;;16.13;4.40;;;;;;;;;;6145072;23;20379;-80
2021/12/18 03:54:22;;;;;;;14.30;4.30;;;;;;;;;;6168648;23;20368;-80
2021/12/18 03:56:48;;;;;;;13.68;4.32;;;;;;;;;;6194365;23;20483;-80
2021/12/18 03:59:14;;;;;;;15.98;4.40;;;;;;;;;;6168240;23;20371;-80
2021/12/18 04:01:40;;;;;;;17.15;4.90;;;;;;;;;;6169072;23;20399;-81
2021/12/18 04:04:07;;;;;;;20.05;5.35;;;;;;;;;;6141962;23;20398;-81
2021/12/18 04:06:33;;;;;;;19.58;5.18;;;;;;;;;;6168470;23;20371;-80
2021/12/18 04:08:59;;;;;;;18.73;5.43;;;;;;;;;;6143095;23;20372;-79
2021/12/18 04:11:25;;;;;;;15.60;4.68;;;;;;;;;;6167846;23;20376;-81
2021/12/18 04:13:52;;;;;;;16.25;4.53;;;;;;;;;;6167391;23;20370;-80
2021/12/18 04:16:18;;;;;;;19.00;4.63;;;;;;;;;;6143499;23;20435;-80
2021/12/18 04:18:44;;;;;;;18.70;4.50;;;;;;;;;;6143391;23;20368;-80
2021/12/18 04:21:10;;;;;;;18.20;4.38;;;;;;;;;;6167070;23;20371;-81
2021/12/18 04:23:36;;;;;;;18.30;4.68;;;;;;;;;;6166799;23;20399;-80
2021/12/18 04:26:02;;;;;;;16.35;4.55;;;;;;;;;;6167580;23;20375;-80
2021/12/18 04:28:29;;;;;;;19.92;4.70;;;;;;;;;;6167928;23;20551;-80
2021/12/18 04:30:55;;;;;;;21.77;4.60;;;;;;;;;;6193026;23;20371;-80
2021/12/18 04:33:21;;;;;;;18.67;3.85;;;;;;;;;;6167093;23;20363;-81
2021/12/18 04:35:47;;;;;;;20.27;4.40;;;;;;;;;;6167854;23;20391;-81
2021/12/18 04:38:13;;;;;;;20.80;4.20;;;;;;;;;;6192289;23;20367;-80
2021/12/18 04:40:41;;;;;;;21.08;5.20;;;;;;;;;;6168109;23;20374;-81
2021/12/18 04:43:07;;;;;;;34.85;9.25;;;;;;;;;;6192088;23;20457;-81
2021/12/18 04:45:33;;;;;;;29.77;8.45;;;;;;;;;;6193232;23;20920;-81
2021/12/18 04:47:59;;;;;;;20.83;6.65;;;;;;;;;;6167530;23;20466;-80
2021/12/18 04:50:26;;;;;;;21.20;4.87;;;;;;;;;;6192614;23;20367;-81
2021/12/18 04:52:52;;;;;;;22.48;4.80;;;;;;;;;;6166753;23;20980;-82
2021/12/18 04:55:18;;;;;;;20.38;4.90;;;;;;;;;;6167538;23;20379;-81
2021/12/18 04:57:44;;;;;;;21.63;5.20;;;;;;;;;;6168273;23;20372;-81
2021/12/18 05:00:13;;;;;;;21.50;5.95;;;;;;;;;;6167374;23;20410;-81
2021/12/18 05:02:42;;;;;;;22.88;5.93;;;;;;;;;;6167633;23;20460;-81
2021/12/18 05:05:13;;;;;;;24.02;6.40;;;;;;;;;;6143686;23;20398;-81
2021/12/18 05:07:39;;;;;;;26.38;6.53;;;;;;;;;;6167856;23;20372;-82
2021/12/18 05:10:06;;;;;;;23.42;6.47;;;;;;;;;;6192504;23;20414;-81
2021/12/18 05:12:33;;;;;;;23.95;6.35;;;;;;;;;;6191765;23;20377;-81
2021/12/18 05:14:59;;;;;;;27.38;6.65;;;;;;;;;;6192920;23;20915;-81
2021/12/18 05:17:25;;;;;;;31.60;7.25;;;;;;;;;;6142991;23;20434;-81
2021/12/18 05:19:52;;;;;;;27.80;7.25;;;;;;;;;;6192974;23;20947;-81
2021/12/18 05:22:21;;;;;;;25.83;7.43;;;;;;;;;;6167506;23;20376;-82
2021/12/18 05:24:47;;;;;;;31.10;7.95;;;;;;;;;;6167213;23;20395;-82
2021/12/18 05:27:13;;;;;;;26.83;8.00;;;;;;;;;;6143601;23;20376;-82
2021/12/18 05:29:39;;;;;;;27.20;7.78;;;;;;;;;;6195344;23;20375;-82
2021/12/18 05:32:05;;;;;;;30.83;8.63;;;;;;;;;;6146609;23;20915;-82
2021/12/18 05:34:37;;;;;;;27.27;8.63;;;;;;;;;;6198639;23;20364;-81
2021/12/18 05:39:39;;;;;;;28.65;8.55;;;;;;;;;;6197219;23;20690;-81
2021/12/18 05:42:05;;;;;;;26.50;8.85;;;;;;;;;;6142537;23;20367;-81
2021/12/18 05:44:31;;;;;;;27.02;8.85;;;;;;;;;;6145059;23;20430;-81
2021/12/18 05:46:57;;;;;;;28.27;8.35;;;;;;;;;;6194272;23;20375;-81
2021/12/18 05:49:23;;;;;;;29.58;8.77;;;;;;;;;;6169752;23;20371;-81
2021/12/18 05:51:50;;;;;;;25.47;8.50;;;;;;;;;;6144731;23;20367;-81
2021/12/18 05:54:16;;;;;;;27.55;8.43;;;;;;;;;;6168262;23;20595;-82
2021/12/18 05:56:42;;;;;;;27.10;7.78;;;;;;;;;;6145855;23;20406;-82
2021/12/18 05:59:08;;;;;;;27.73;8.70;;;;;;;;;;6194095;23;20765;-82
2021/12/18 06:01:35;;;;;;;28.38;8.05;;;;;;;;;;6144068;23;20376;-82
2021/12/18 06:04:01;;;;;;;27.63;7.83;;;;;;;;;;6167822;23;20402;-81
2021/12/18 06:06:29;;;;;;;26.30;7.70;;;;;;;;;;6168372;23;20379;-81
2021/12/18 06:08:55;;;;;;;23.30;7.67;;;;;;;;;;6170370;23;20367;-81
2021/12/18 06:11:22;;;;;;;31.42;8.73;;;;;;;;;;6194525;23;20367;-82
2021/12/18 06:13:50;;;;;;;29.42;8.10;;;;;;;;;;6168666;23;20382;-80
2021/12/18 06:16:17;;;;;;;34.45;8.70;;;7.60;99.90;;;;;;6169017;23;20395;-81
2021/12/18 06:18:44;;;;;;;31.58;8.02;;;7.60;99.90;;;;;;6194061;23;20375;-83
2021/12/18 06:21:14;;;;;;;27.67;8.10;;;;;;;;;;6193473;23;20746;-82
2021/12/18 06:23:41;;;;;;;26.13;7.30;;;;;;;;;;6168357;23;20725;-82
2021/12/18 06:26:07;;;;;;;30.42;7.85;;;;;;;;;;6144662;23;20454;-82
2021/12/18 06:28:33;;;;;;;22.85;7.10;;;;;;;;;;6193446;23;20383;-82
2021/12/18 06:31:01;;;;;;;24.13;6.57;;;;;;;;;;6170149;23;20425;-82
2021/12/18 06:33:27;;;;;;;22.23;6.57;;;;;;;;;;6167439;23;20726;-81
2021/12/18 06:35:53;;;;;;;22.67;6.57;;;;;;;;;;6144836;23;20383;-82
2021/12/18 06:38:19;;;;;;;24.08;6.43;;;;;;;;;;6168881;23;20698;-81
2021/12/18 06:40:45;;;;;;;24.58;6.50;;;;;;;;;;6169277;23;20454;-82
2021/12/18 06:43:11;;;;;;;20.20;6.40;;;;;;;;;;6192453;23;20395;-81
2021/12/18 06:45:37;;;;;;;24.05;6.65;;;;;;;;;;6168294;23;20396;-81
2021/12/18 06:48:04;;;;;;;22.23;6.75;;;;;;;;;;6169533;23;20372;-81
2021/12/18 06:50:30;;;;;;;24.38;7.10;;;;;;;;;;6192604;23;20367;-82
2021/12/18 06:52:56;;;;;;;19.45;6.60;;;;;;;;;;6167572;23;20371;-81
2021/12/18 06:55:23;;;;;;;21.67;6.85;;;;;;;;;;6168139;23;20954;-82
2021/12/18 06:57:49;;;;;;;25.42;7.53;;;;;;;;;;6193657;23;20682;-82
2021/12/18 07:00:16;;;;;;;23.90;7.80;;;;;;;;;;6167588;23;20372;-81
2021/12/18 07:02:42;;;;;;;23.25;7.40;;;;;;;;;;6191861;23;20364;-82
2021/12/18 07:05:09;;;;;;;25.98;7.93;;;;;;;;;;6193306;23;20364;-81
2021/12/18 07:07:35;;;;;;;26.58;7.82;;;;;;;;;;6192525;23;20378;-82
2021/12/18 07:10:01;;;;;;;23.63;7.43;;;;;;;;;;6168195;23;20374;-82
2021/12/18 07:12:28;;;;;;;25.35;8.18;;;;;;;;;;6142799;23;20960;-81
2021/12/18 07:14:54;;;;;;;24.83;8.00;;;;;;;;;;6167731;23;20371;-81
2021/12/18 07:17:20;;;;;;;22.53;7.77;;;;;;;;;;6166239;23;20363;-81
2021/12/18 07:19:46;;;;;;;25.63;8.48;;;;;;;;;;6167805;23;20532;-82
2021/12/18 07:22:12;;;;;;;28.02;8.73;;;;;;;;;;6144048;23;20372;-81
2021/12/18 07:24:38;;;;;;;25.93;8.40;;;;;;;;;;6142972;23;20730;-81
2021/12/18 07:27:04;;;;;;;28.52;9.30;;;;;;;;;;6168101;23;20376;-82
2021/12/18 07:29:30;;;;;;;28.05;8.90;;;;;;;;;;6193223;23;20394;-81
2021/12/18 07:31:56;;;;;;;29.42;9.45;;;;;;;;;;6193264;23;20395;-82
2021/12/18 07:34:22;;;;;;;27.15;8.95;;;;;;;;;;6192872;23;20368;-82
2021/12/18 07:36:49;;;;;;;28.60;8.93;;;;;;;;;;6142775;23;20364;-82
2021/12/18 07:39:15;;;;;;;29.90;9.27;;;;;;;;;;6192434;23;20864;-82
2021/12/18 07:41:41;;;;;;;31.90;9.55;;;;;;;;;;6167053;23;20382;-81
2021/12/18 07:44:08;;;;;;;27.97;8.97;;;;;;;;;;6143434;23;20402;-82
2021/12/18 07:46:35;;;;;;;20.88;8.25;;;;;;;;;;6166489;23;20371;-82
2021/12/18 07:49:02;;;;;;;24.73;8.45;;;;;;;;;;6192158;23;20368;-81
2021/12/18 07:51:28;;;;;;;23.17;7.88;;;;;;;;;;6166866;23;20364;-81
2021/12/18 07:53:54;;;;;;;22.42;8.10;;;;;;;;;;6143477;23;20367;-81
2021/12/18 07:56:20;;;;;;;22.63;8.50;;;;;;;;;;6143212;23;20372;-81
2021/12/18 07:58:46;;;;;;;25.42;8.35;;;;;;;;;;6144790;23;20372;-81
2021/12/18 08:01:12;;;;;;;24.73;8.68;;;;;;;;;;6196883;23;20372;-80
2021/12/18 08:03:40;;;;;;;22.77;7.80;;;;;;;;;;6172303;23;20463;-80
2021/12/18 08:06:06;;;;;;;20.23;7.88;;;;;;;;;;6172490;23;20870;-81
2021/12/18 08:08:33;;;;;;;20.77;7.72;;;;;;;;;;6172690;23;20372;-79
2021/12/18 08:10:59;;;;;;;20.83;7.97;;;;;;;;;;6170558;23;20430;-79
2021/12/18 08:13:25;;;;;;;19.52;7.38;;;;;;;;;;6165450;23;20422;-79
2021/12/18 08:15:51;;;;;;;19.02;7.18;;;;;;;;;;6142232;23;20376;-80
2021/12/18 08:18:17;;;;;;;15.40;6.80;;;;;;;;;;6167614;23;20364;-80
2021/12/18 08:20:44;;;;;;;19.55;7.65;;;;;;;;;;6166496;23;20431;-79
2021/12/18 08:23:10;;;;;;;18.45;7.72;;;;;;;;;;6143158;23;20396;-79
2021/12/18 08:25:36;;;;;;;18.15;6.80;;;;;;;;;;6164757;23;20813;-79
2021/12/18 08:28:03;;;;;;;16.20;7.03;;;;;;;;;;6166589;23;20387;-80
2021/12/18 08:30:30;;;;;;;18.05;6.75;;;;;;;;;;6167339;23;20427;-79
2021/12/18 08:32:58;;;;;;;15.57;6.32;;;;;;;;;;6191842;23;20466;-79
2021/12/18 08:35:25;;;;;;;16.38;6.65;;;;;;;;;;6167682;23;20382;-79
2021/12/18 08:37:52;;;;;;;18.33;7.13;;;;;;;;;;6191272;23;20391;-80
2021/12/18 08:40:18;;;;;;;17.55;7.15;;;;;;;;;;6167660;23;20363;-79
2021/12/18 08:42:44;;;;;;;17.70;6.80;;;;;;;;;;6166131;23;20375;-80
2021/12/18 08:45:11;;;;;;;16.95;7.03;;;;;;;;;;6167897;23;20436;-79
2021/12/18 08:47:37;;;;;;;15.05;6.65;;;;;;;;;;6191734;23;20363;-79
2021/12/18 08:50:04;;;;;;;16.45;7.07;;;;;;;;;;6143171;23;20367;-79
2021/12/18 08:52:30;;;;;;;17.55;7.00;;;;;;;;;;6143170;23;20807;-78
2021/12/18 08:54:56;;;;;;;17.52;6.95;;;;;;;;;;6190948;23;20375;-79
2021/12/18 08:57:22;;;;;;;16.88;7.07;;;;;;;;;;6167585;23;20415;-79
2021/12/18 08:59:48;;;;;;;16.98;7.35;;;;;;;;;;6166213;23;20671;-79
2021/12/18 09:02:15;;;;;;;20.65;9.50;;;;;;;;;;6167786;23;20368;-79
2021/12/18 09:04:41;;;;;;;23.25;10.85;;;;;;;;;;6166947;23;20399;-79
2021/12/18 09:07:08;;;;;;;21.50;10.60;;;;;;;;;;6166455;23;20454;-79
2021/12/18 09:09:34;;;;;;;20.53;8.90;;;;;;;;;;6168262;23;20372;-79
2021/12/18 09:12:00;;;;;;;19.10;8.30;;;;;;;;;;6166152;23;20407;-79
2021/12/18 09:14:26;;;;;;;18.45;7.60;;;;;;;;;;6167858;23;20401;-79
2021/12/18 09:16:53;;;;;;;15.70;7.40;;;;;;;;;;6142012;23;20370;-79
2021/12/18 09:19:20;;;;;;;16.08;7.30;;;;;;;;;;6191412;23;20429;-80
2021/12/18 09:21:46;;;;;;;17.70;7.65;;;;;;;;;;6162603;23;20454;-79
2021/12/18 09:24:12;;;;;;;16.55;8.30;;;;;;;;;;6189787;23;20399;-80
2021/12/18 09:26:38;;;;;;;16.08;7.78;;;;;;;;;;6135863;23;20385;-78
2021/12/18 09:29:04;;;;;;;18.23;9.15;;;;;;;;;;6159853;23;20388;-79
2021/12/18 09:31:31;;;;;;;15.70;7.28;;;;;;;;;;6136607;23;20365;-78
2021/12/18 09:33:57;;;;;;;17.92;6.70;;;;;;;;;;6184975;23;20369;-79
2021/12/18 09:36:23;;;;;;;13.65;6.63;;;;;;;;;;6162300;23;20366;-79
2021/12/18 09:38:49;;;;;;;16.17;6.65;;;;;;;;;;6161173;23;20366;-78
2021/12/18 09:41:15;;;;;;;17.42;7.47;;;;;;;;;;6186682;23;20416;-79
2021/12/18 09:43:41;;;;;;;15.80;7.75;;;;;;;;;;6186688;23;20393;-78
2021/12/18 09:46:10;;;;;;;18.27;8.65;;;8.90;99.90;;;;;;6161479;23;20384;-79
2021/12/18 09:48:37;;;;;;;22.10;9.85;;;;;;;;;;6162292;23;20380;-79
2021/12/18 09:51:07;;;;;;;21.02;9.57;;;;;;;;;;6160935;23;20373;-78
2021/12/18 09:53:34;;;;;;;21.88;11.35;;;;;;;;;;6162135;23;20366;-78
2021/12/18 09:56:00;;;;;;;33.83;20.23;;;;;;;;;;6161559;23;20373;-78
2021/12/18 09:58:26;;;;;;;21.20;11.50;;;;;;;;;;6161335;23;20387;-78
2021/12/18 10:00:52;;;;;;;18.70;11.02;;;;;;;;;;6162715;23;20739;-78
2021/12/18 10:03:18;;;;;;;17.92;8.25;;;;;;;;;;6136358;23;20408;-78
2021/12/18 10:05:44;;;;;;;12.18;6.60;;;;;;;;;;6162780;23;20365;-78
2021/12/18 10:08:12;;;;;;;11.43;6.00;;;;;;;;;;6161853;23;20806;-78
2021/12/18 10:10:57;;;;;;;13.45;6.20;;;;;;;;;;6162378;23;20433;-78
2021/12/18 10:13:23;;;;;;;11.77;6.07;;;;;;;;;;6160724;23;20441;-76
2021/12/18 10:16:07;;;;;;;8.18;4.43;;;8.80;99.90;;;;;;6161068;23;20403;-77
2021/12/18 10:18:34;;;;;;;8.95;3.80;;;;;;;;;;6186887;23;20369;-77
2021/12/18 10:21:07;;;;;;;9.88;4.05;;;;;;;;;;6161761;23;20372;-76
2021/12/18 10:23:33;;;;;;;13.23;7.32;;;;;;;;;;6161753;23;20397;-76
2021/12/18 10:25:59;;;;;;;13.60;7.57;;;;;;;;;;6136816;23;20381;-77
2021/12/18 10:28:29;;;;;;;19.35;11.68;;;;;;;;;;6163884;23;20398;-77
2021/12/18 10:30:56;;;;;;;19.02;13.20;;;;;;;;;;6144774;23;20429;-77
2021/12/18 10:33:28;;;;;;;22.48;10.85;;;;;;;;;;6193008;23;20373;-77
2021/12/18 10:35:55;;;;;;;23.80;14.60;;;;;;;;;;6164738;23;20927;-78
2021/12/18 10:38:42;;;;;;;11.10;6.03;;;;;;;;;;6162960;23;20406;-77
2021/12/18 10:41:28;;;;;;;13.57;7.32;;;;;;;;;;6187666;23;20539;-77
2021/12/18 10:43:55;;;;;;;13.67;6.33;;;;;;;;;;6162733;23;20397;-77
2021/12/18 10:46:21;;;;;;;10.98;5.90;;;;;;;;;;6164176;23;20748;-76
2021/12/18 10:48:57;;;;;;;10.70;5.32;;;;;;;;;;6164879;23;20380;-77
2021/12/18 10:51:24;;;;;;;12.57;5.90;;;8.80;99.90;;;;;;6162410;23;20378;-77
2021/12/18 10:53:50;;;;;;;10.40;5.20;;;;;;;;;;6138763;23;20373;-77
2021/12/18 10:56:17;;;;;;;10.70;4.70;;;;;;;;;;6186972;23;20437;-78
2021/12/18 10:58:43;;;;;;;13.70;7.18;;;;;;;;;;6138548;23;20481;-77
2021/12/18 11:01:16;;;;;;;13.50;5.53;;;;;;;;;;6138792;23;20377;-78
2021/12/18 11:03:49;;;;;;;16.13;8.48;;;;;;;;;;6162541;23;20401;-78
2021/12/18 11:06:25;;;;;;;14.63;7.03;;;;;;;;;;6138052;23;20396;-78
2021/12/18 11:08:55;;;;;;;14.93;7.53;;;;;;;;;;6163148;23;20479;-77
2021/12/18 11:14:09;;;;;;;13.68;6.82;;;;;;;;;;6188989;23;20762;-78
2021/12/18 11:16:36;;;;;;;15.05;7.80;;;;;;;;;;6162758;23;20381;-79
2021/12/18 11:19:07;;;;;;;14.70;8.73;;;;;;;;;;6163782;23;20397;-77
2021/12/18 11:21:33;;;;;;;13.38;6.63;;;;;;;;;;6161795;23;20493;-77
2021/12/18 11:24:01;;;;;;;13.90;6.70;;;;;;;;;;6138825;23;20432;-78
2021/12/18 11:26:33;;;;;;;12.77;5.97;;;;;;;;;;6162343;23;20415;-77
2021/12/18 11:28:59;;;;;;;12.70;5.75;;;;;;;;;;6162277;23;20396;-78
2021/12/18 11:31:27;;;;;;;12.30;5.95;;;;;;;;;;6138972;23;20401;-78
2021/12/18 11:33:54;;;;;;;9.95;5.15;;;;;;;;;;6162471;23;20392;-78
2021/12/18 11:36:20;;;;;;;11.30;6.10;;;;;;;;;;6138445;23;20448;-77
2021/12/18 11:38:47;;;;;;;13.32;6.13;;;;;;;;;;6162799;23;20373;-77
2021/12/18 11:41:17;;;;;;;14.50;6.38;;;;;;;;;;6164362;23;20393;-78
2021/12/18 11:43:46;;;;;;;13.18;6.15;;;;;;;;;;6164038;23;20461;-78
2021/12/18 11:46:32;;;;;;;12.23;5.90;;;;;;;;;;6162138;23;20373;-78
2021/12/18 11:49:00;;;;;;;13.40;5.50;;;;;;;;;;6162719;23;20373;-77
2021/12/18 11:51:26;;;;;;;12.65;6.10;;;;;;;;;;6161077;23;20374;-78
2021/12/18 11:53:53;;;;;;;14.77;6.75;;;;;;;;;;6162675;23;20373;-78
2021/12/18 11:56:19;;;;;;;12.07;6.10;;;;;;;;;;6162687;23;20366;-77
2021/12/18 11:58:47;;;;;;;13.60;5.22;;;;;;;;;;6159964;23;21018;-79
2021/12/18 12:01:16;;;;;;;11.82;5.95;;;;;;;;;;6161684;23;20369;-78
2021/12/18 12:03:55;;;;;;;11.23;5.43;;;;;;;;;;6159383;23;20882;-79
2021/12/18 12:06:30;;;;;;;11.77;4.97;;;;;;;;;;6162652;23;21157;-78
2021/12/18 12:09:26;;;;;;;11.43;5.18;;;;;;;;;;6162833;23;20385;-78
2021/12/18 12:12:01;;;;;;;12.13;4.47;;;;;;;;;;6158382;23;20377;-79
2021/12/18 12:14:31;;;;;;;12.05;4.22;;;;;;;;;;6162499;23;20472;-79
2021/12/18 12:17:00;;;;;;;10.23;4.07;;;;;;;;;;6161761;23;20493;-80
2021/12/18 12:19:35;;;;;;;12.30;4.05;;;;;;;;;;6163745;23;20860;-79
2021/12/18 12:22:02;;;;;;;12.40;4.50;;;;;;;;;;6162926;23;20385;-79
2021/12/18 12:24:30;;;;;;;11.38;4.40;;;;;;;;;;6162469;23;20464;-80
2021/12/18 12:27:27;;;;;;;11.88;4.70;;;9.50;99.90;;;;;;6162561;23;20412;-79
2021/12/18 12:29:54;;;;;;;12.02;4.30;;;;;;;;;;6161684;23;20433;-79
2021/12/18 12:32:20;;;;;;;11.43;4.20;;;;;;;;;;6162078;23;20855;-79
2021/12/18 12:34:59;;;;;;;12.50;4.50;;;;;;;;;;6162592;23;20379;-80
2021/12/18 12:37:25;;;;;;;11.60;4.10;;;;;;;;;;6161557;23;20393;-79
2021/12/18 12:39:52;;;;;;;9.52;3.72;;;;;;;;;;6162397;23;20384;-79
2021/12/18 12:42:19;;;;;;;8.23;3.47;;;;;;;;;;6161632;23;20405;-79
2021/12/18 12:45:18;;;;;;;17.65;7.47;;;;;;;;;;6187585;23;20402;-78
2021/12/18 12:47:37;;;;;;;11.68;3.70;;;;;;;;;;6165663;23;20378;-78
2021/12/18 12:50:09;;;;;;;10.27;4.30;;;;;;;;;;6161918;23;20531;-78
2021/12/18 12:52:49;;;;;;;13.50;4.85;;;;;;;;;;6163311;23;20377;-80
2021/12/18 12:55:19;;;;;;;11.55;4.10;;;;;;;;;;6162489;23;20374;-81
2021/12/18 12:57:50;;;;;;;9.93;4.03;;;;;;;;;;6188799;23;20400;-81
2021/12/18 13:00:23;;;;;;;9.23;3.20;;;;;;;;;;6165751;23;20374;-80
2021/12/18 13:02:51;;;;;;;14.80;4.20;;;;;;;;;;6168308;23;20380;-80
2021/12/18 13:05:18;;;;;;;9.82;3.53;;;;;;;;;;6168720;23;20376;-81
2021/12/18 13:07:55;;;;;;;10.60;3.77;;;;;;;;;;6142843;23;20374;-80
2021/12/18 13:10:23;;;;;;;11.30;4.00;;;;;;;;;;6190106;23;20405;-79
2021/12/18 13:12:55;;;;;;;13.95;4.00;;;;;;;;;;6163029;23;20449;-79
2021/12/18 13:15:21;;;;;;;12.85;4.15;;;;;;;;;;6162820;23;20381;-80
2021/12/18 13:17:48;;;;;;;10.15;3.53;;;;;;;;;;6162933;23;20409;-80
2021/12/18 13:20:14;;;;;;;10.98;3.78;;;;;;;;;;6162657;23;20377;-79
2021/12/18 13:22:51;;;;;;;10.60;3.72;;;;;;;;;;6162642;23;20370;-80
2021/12/18 13:25:17;;;;;;;10.77;3.70;;;;;;;;;;6165137;23;20528;-80
2021/12/18 13:28:03;;;;;;;10.35;3.70;;;9.40;99.90;;;;;;6167060;23;20477;-78
2021/12/18 13:30:29;;;;;;;9.90;4.00;;;;;;;;;;6166485;23;20367;-77
2021/12/18 13:32:57;;;;;;;13.80;3.38;;;;;;;;;;6140354;23;20433;-77
2021/12/18 13:35:24;;;;;;;8.43;3.20;;;;;;;;;;6165896;23;20444;-76
2021/12/18 13:38:10;;;;;;;8.20;3.00;;;;;;;;;;6166275;23;20865;-79
2021/12/18 13:40:39;;;;;;;9.52;3.65;;;;;;;;;;6165926;23;20394;-79
2021/12/18 13:43:09;;;;;;;9.90;4.00;;;;;;;;;;6165675;23;20376;-78
2021/12/18 13:45:54;;;;;;;14.98;5.28;;;;;;;;;;6166996;23;20400;-78
2021/12/18 13:48:40;;;;;;;13.77;7.22;;;;;;;;;;6192820;23;20387;-78
2021/12/18 13:51:08;;;;;;;13.57;6.32;;;;;;;;;;6166145;23;20375;-78
2021/12/18 13:53:35;;;;;;;8.25;3.47;;;;;;;;;;6166800;23;20449;-78
2021/12/18 13:56:07;;;;;;;7.75;3.80;;;;;;;;;;6140975;23;20474;-78
2021/12/18 13:58:40;;;;;;;10.18;3.88;;;;;;;;;;6166415;23;20384;-79
2021/12/18 14:01:13;;;;;;;12.63;5.45;;;;;;;;;;6144983;23;20379;-79
2021/12/18 14:03:44;;;;;;;12.75;4.05;;;;;;;;;;6168511;23;20391;-79
2021/12/18 14:06:13;;;;;;;10.18;3.90;;;;;;;;;;6168472;23;20418;-79
2021/12/18 14:08:40;;;;;;;12.55;3.72;;;;;;;;;;6168986;23;20382;-79
2021/12/18 14:11:09;;;;;;;9.98;4.30;;;;;;;;;;6144871;23;20398;-79
2021/12/18 14:13:43;;;;;;;11.35;4.50;;;;;;;;;;6193199;23;20691;-79
2021/12/18 14:16:10;;;;;;;8.77;4.30;;;;;;;;;;6167991;23;20442;-79
2021/12/18 14:18:37;;;;;;;10.40;4.85;;;;;;;;;;6193611;23;20372;-79
2021/12/18 14:21:04;;;;;;;11.02;4.60;;;;;;;;;;6167854;23;20422;-79
2021/12/18 14:23:35;;;;;;;9.47;4.40;;;;;;;;;;6143494;23;20408;-79
2021/12/18 14:26:20;;;;;;;12.90;5.25;;;;;;;;;;6163146;23;20400;-79
2021/12/18 14:28:47;;;;;;;13.35;4.88;;;;;;;;;;6187904;23;20412;-79
2021/12/18 14:31:29;;;;;;;14.20;6.00;;;8.90;99.90;;;;;;6164822;23;20396;-79
2021/12/18 14:34:05;;;;;;;15.00;5.60;;;;;;;;;;6163232;23;20452;-80
2021/12/18 14:36:47;;;;;;;13.02;5.80;;;;;;;;;;6162993;23;20393;-79
2021/12/18 14:39:39;;;;;;;16.58;8.57;;;;;;;;;;6163750;23;20409;-79
2021/12/18 14:42:15;;;;;;;10.48;5.15;;;;;;;;;;6157380;23;20385;-79
2021/12/18 14:44:45;;;;;;;13.95;5.07;;;;;;;;;;6164890;23;20408;-79
2021/12/18 14:47:13;;;;;;;10.77;5.45;;;;;;;;;;6163585;23;20432;-80
2021/12/18 14:49:58;;;;;;;11.38;5.07;;;;;;;;;;6189636;23;20903;-79
2021/12/18 14:52:25;;;;;;;12.10;4.85;;;;;;;;;;6164679;23;20397;-79
2021/12/18 14:54:53;;;;;;;11.65;4.90;;;;;;;;;;6163651;23;20778;-79
2021/12/18 14:57:27;;;;;;;11.13;5.20;;;;;;;;;;6165126;23;20437;-80
2021/12/18 15:00:12;;;;;;;10.63;4.90;;;;;;;;;;6162905;23;20370;-80
2021/12/18 15:03:05;;;;;;;13.65;5.75;;;9.00;99.90;;;;;;6188459;23;20397;-79
2021/12/18 15:05:52;;;;;;;12.88;5.15;;;;;;;;;;6163227;23;20452;-80
2021/12/18 15:08:35;;;;;;;12.40;5.85;;;;;;;;;;6188372;23;20408;-79
2021/12/18 15:11:21;;;;;;;30.23;14.65;;;;;;;;;;6161168;23;20377;-81
2021/12/18 15:13:53;;;;;;;15.75;5.95;;;;;;;;;;6163500;23;20382;-80
2021/12/18 15:16:27;;;;;;;16.70;8.52;;;;;;;;;;6162226;23;20373;-80
2021/12/18 15:18:54;;;;;;;13.15;4.93;;;;;;;;;;6164218;23;20587;-80
2021/12/18 15:21:20;;;;;;;16.50;5.85;;;;;;;;;;6166870;23;20373;-79
2021/12/18 15:23:47;;;;;;;13.45;5.55;;;;;;;;;;6191023;23;20397;-80
2021/12/18 15:26:13;;;;;;;12.35;4.72;;;;;;;;;;6164207;23;20377;-79
2021/12/18 15:28:40;;;;;;;11.20;4.47;;;;;;;;;;6163632;23;20385;-80
2021/12/18 15:31:07;;;;;;;9.55;4.90;;;;;;;;;;6163878;23;20413;-80
2021/12/18 15:33:33;;;;;;;19.90;7.50;;;;;;;;;;6162308;23;20889;-81